Terminal Aerodrome Forecast
Issued by NWS Pocatello, ID

Home | Current Version | Previous Version | Text Only | Print | Product List | Glossary On
Versions: 1 2 3 4 5 6 7 8 9 10 11 12 13
000
FTUS45 KPIH 270520
TAFBYI
TAF
KBYI 270520Z 2706/2806 22008KT P6SM FEW200
     FM271200 20006KT P6SM SCT040 SCT070
     FM271600 27015G25KT P6SM SCT070
     FM280200 25012KT P6SM BKN090=

USA.gov is the U.S. government's official web portal to all federal, state and local government web resources and services.